Time;durP1;ratioP1;P1;durP2;ratioP2;P2;SDS_P1;SDS_P2;PMS_P1;PMS_P2;Temp;Humidity;BMP_temperature;BMP_pressure;BME280_temperature;BME280_humidity;BME280_pressure;Samples;Min_cycle;Max_cycle;Signal;HPM_P1;HPM_P2
2023/01/16 00:01:59;;;;;;;;;;;6.10;99.90;;;;;;5037997;28;19916;-67
2023/01/16 00:04:24;;;;;;;;;;;6.10;99.90;;;;;;5038275;28;20008;-67
2023/01/16 00:06:50;;;;;;;;;;;6.20;99.90;;;;;;5037264;28;19909;-68
2023/01/16 00:09:15;;;;;;;;;;;6.20;99.90;;;;;;5038485;28;19913;-66
2023/01/16 00:11:41;;;;;;;;;;;6.20;99.90;;;;;;5039286;28;19917;-67
2023/01/16 00:14:06;;;;;;;;;;;6.20;99.90;;;;;;5037458;28;19920;-68
2023/01/16 00:16:32;;;;;;;;;;;6.20;99.90;;;;;;5037339;28;19948;-67
2023/01/16 00:18:57;;;;;;;;;;;6.30;99.90;;;;;;5037154;28;19913;-68
2023/01/16 00:21:25;;;;;;;;;;;6.20;99.90;;;;;;5037195;28;19957;-68
2023/01/16 00:23:52;;;;;;;;;;;6.30;99.90;;;;;;5036338;28;19910;-67
2023/01/16 00:26:18;;;;;;;;;;;6.40;99.90;;;;;;5036909;28;19909;-67
2023/01/16 00:28:43;;;;;;;;;;;6.30;99.90;;;;;;5036411;28;20373;-67
2023/01/16 00:31:09;;;;;;;;;;;6.40;99.90;;;;;;5051353;28;20370;-68
2023/01/16 00:33:35;;;;;;;;;;;6.40;99.90;;;;;;5034933;28;20412;-67
2023/01/16 00:36:01;;;;;;;;;;;6.30;99.90;;;;;;5036089;28;19915;-66
2023/01/16 00:38:26;;;;;;;;;;;6.20;99.90;;;;;;5034614;28;19913;-67
2023/01/16 00:40:52;;;;;;;;;;;6.20;99.90;;;;;;5035360;28;20047;-66
2023/01/16 00:43:18;;;;;;;;;;;6.10;99.90;;;;;;5036815;28;19924;-67
2023/01/16 00:45:43;;;;;;;;;;;6.10;99.90;;;;;;5036587;28;19916;-68
2023/01/16 00:48:09;;;;;;;;;;;6.00;99.90;;;;;;5036430;28;19913;-66
2023/01/16 00:50:35;;;;;;;;;;;6.00;99.90;;;;;;5036305;28;20254;-67
2023/01/16 00:53:00;;;;;;;;;;;5.90;99.90;;;;;;5035864;28;19968;-67
2023/01/16 00:55:26;;;;;;;;;;;6.00;99.90;;;;;;5058567;23;19921;-67
2023/01/16 00:57:51;;;;;;;;;;;6.00;99.90;;;;;;5054885;28;19917;-66
2023/01/16 01:00:20;;;;;;;;;;;5.90;99.90;;;;;;5056521;28;19940;-67
2023/01/16 01:02:47;;;;;;;;;;;5.90;99.90;;;;;;5053627;28;19987;-66
2023/01/16 01:05:12;;;;;;;;;;;5.90;99.90;;;;;;5054248;28;19909;-66
2023/01/16 01:07:38;;;;;;;;;;;5.90;99.90;;;;;;5055292;28;20323;-66
2023/01/16 01:10:03;;;;;;;;;;;5.90;99.90;;;;;;5055362;28;19927;-67
2023/01/16 01:12:29;;;;;;;;;;;5.90;99.90;;;;;;5055222;28;19975;-67
2023/01/16 01:14:54;;;;;;;;;;;5.80;99.90;;;;;;5055182;28;19909;-67
2023/01/16 01:17:20;;;;;;;;;;;5.80;99.90;;;;;;5055274;28;19920;-66
2023/01/16 01:19:45;;;;;;;;;;;5.80;99.90;;;;;;5055129;28;19909;-67
2023/01/16 01:22:11;;;;;;;;;;;5.80;99.90;;;;;;5055023;28;19909;-66
2023/01/16 01:24:36;;;;;;;;;;;5.90;99.90;;;;;;5054958;28;19908;-67
2023/01/16 01:27:02;;;;;;;;;;;5.90;99.90;;;;;;5050521;28;19916;-66
2023/01/16 01:29:27;;;;;;;;;;;5.90;99.90;;;;;;5034762;28;20001;-66
2023/01/16 01:31:53;;;;;;;;;;;6.00;99.90;;;;;;5034771;28;19933;-66
2023/01/16 01:34:18;;;;;;;;;;;5.90;99.90;;;;;;5034823;28;19920;-66
2023/01/16 01:36:43;;;;;;;;;;;6.00;99.90;;;;;;5034524;28;19910;-66
2023/01/16 01:39:09;;;;;;;;;;;5.90;99.90;;;;;;5034562;28;20360;-67
2023/01/16 01:41:34;;;;;;;;;;;5.90;99.90;;;;;;5034670;28;19916;-66
2023/01/16 01:44:00;;;;;;;;;;;5.90;99.90;;;;;;5034170;28;20469;-66
2023/01/16 01:46:39;;;;;;;;;;;5.90;99.90;;;;;;5034388;28;19909;-67
2023/01/16 01:49:28;;;;;;;;;;;5.90;99.90;;;;;;5034714;28;19992;-67
2023/01/16 01:51:55;;;;;;;;;;;5.90;99.90;;;;;;5035534;28;20346;-67
2023/01/16 01:54:26;;;;;;;;;;;5.90;99.90;;;;;;5034598;28;19955;-67
2023/01/16 01:57:00;;;;;;;;;;;5.90;99.90;;;;;;5036477;28;19928;-67
2023/01/16 01:59:27;;;;;;;;;;;5.90;99.90;;;;;;5055009;28;19916;-67
2023/01/16 02:01:53;;;;;;;;;;;5.90;99.90;;;;;;5055521;28;20061;-66
2023/01/16 02:04:22;;;;;;;;;;;5.90;99.90;;;;;;5053145;28;20438;-66
2023/01/16 02:06:54;;;;;;;;;;;5.90;99.90;;;;;;5057507;28;19915;-66
2023/01/16 02:09:21;;;;;;;;;;;5.90;99.90;;;;;;5055503;28;19962;-66
2023/01/16 02:11:53;;;;;;;;;;;6.00;99.90;;;;;;5054016;28;19909;-67
2023/01/16 02:14:18;;;;;;;;;;;6.00;99.90;;;;;;5052974;28;20023;-67
2023/01/16 02:19:43;;;;;;;;;;;6.10;99.90;;;;;;5054794;28;19935;-66
2023/01/16 02:22:43;;;;;;;;;;;6.00;99.90;;;;;;5054060;28;19916;-67
2023/01/16 02:25:09;;;;;;;;;;;6.10;99.90;;;;;;4992721;28;19914;-66
2023/01/16 02:27:40;;;;;;;;;;;6.20;99.90;;;;;;5041645;28;19909;-67
2023/01/16 02:30:31;;;;;;;;;;;6.20;99.90;;;;;;5056092;28;19919;-67
2023/01/16 02:33:23;;;;;;;;;;;6.30;99.90;;;;;;5054404;28;19958;-67
2023/01/16 02:36:07;;;;;;;;;;;6.30;99.90;;;;;;5053466;28;19909;-67
2023/01/16 02:38:51;;;;;;;;;;;6.30;99.90;;;;;;5053920;28;19908;-67
2023/01/16 02:41:23;;;;;;;;;;;6.40;99.90;;;;;;5052379;28;19971;-67
2023/01/16 02:44:03;;;;;;;;;;;6.40;99.90;;;;;;5052208;28;19920;-67
2023/01/16 02:46:33;;;;;;;;;;;6.40;99.90;;;;;;5053673;28;19920;-67
2023/01/16 02:49:07;;;;;;;;;;;6.50;99.90;;;;;;5053780;28;20531;-67
2023/01/16 02:51:50;;;;;;;;;;;6.50;99.90;;;;;;5055427;28;19912;-67
2023/01/16 02:54:32;;;;;;;;;;;6.50;99.90;;;;;;5054692;28;19908;-67
2023/01/16 02:57:18;;;;;;;;;;;6.50;99.90;;;;;;5053206;28;19917;-68
2023/01/16 02:59:43;;;;;;;;;;;6.50;99.90;;;;;;5053625;28;19909;-67
2023/01/16 03:02:09;;;;;;;;;;;6.50;99.90;;;;;;5055585;28;19919;-67
2023/01/16 03:04:34;;;;;;;;;;;6.60;99.90;;;;;;5055954;28;19909;-67
2023/01/16 03:07:16;;;;;;;;;;;6.50;99.90;;;;;;5054668;28;19959;-67
2023/01/16 03:09:41;;;;;;;;;;;6.50;99.90;;;;;;5053913;28;19913;-67
2023/01/16 03:12:22;;;;;;;;;;;6.60;99.90;;;;;;5053500;28;20425;-68
2023/01/16 03:14:50;;;;;;;;;;;6.50;99.90;;;;;;5052857;28;20327;-67
2023/01/16 03:17:24;;;;;;;;;;;6.50;99.90;;;;;;5053416;28;19909;-67
2023/01/16 03:20:16;;;;;;;;;;;6.50;99.90;;;;;;5053301;28;19915;-67
2023/01/16 03:22:44;;;;;;;;;;;6.50;99.90;;;;;;5011715;28;20033;-67
2023/01/16 03:25:32;;;;;;;;;;;6.50;99.90;;;;;;4995648;28;19909;-66
2023/01/16 03:28:13;;;;;;;;;;;6.50;99.90;;;;;;5014314;28;20012;-66
2023/01/16 03:30:55;;;;;;;;;;;6.50;99.90;;;;;;4998621;28;19968;-67
2023/01/16 03:33:30;;;;;;;;;;;6.50;99.90;;;;;;4998852;28;19909;-66
2023/01/16 03:36:04;;;;;;;;;;;6.50;99.90;;;;;;5015617;28;20000;-66
2023/01/16 03:38:31;;;;;;;;;;;6.50;99.90;;;;;;4999197;28;20313;-66
2023/01/16 03:41:00;;;;;;;;;;;6.50;99.90;;;;;;4998685;28;19910;-66
2023/01/16 03:43:30;;;;;;;;;;;6.50;99.90;;;;;;5014775;28;19916;-66
2023/01/16 03:46:00;;;;;;;;;;;6.50;99.90;;;;;;5014984;28;20271;-66
2023/01/16 03:48:26;;;;;;;;;;;6.40;99.90;;;;;;5014898;28;19968;-66
2023/01/16 03:50:53;;;;;;;;;;;6.40;99.90;;;;;;4998560;28;19914;-66
2023/01/16 03:53:20;;;;;;;;;;;6.40;99.90;;;;;;4998511;28;19909;-66
2023/01/16 03:55:53;;;;;;;;;;;6.50;99.90;;;;;;5014953;28;20306;-66
2023/01/16 03:58:22;;;;;;;;;;;6.40;99.90;;;;;;5015244;28;20393;-68
2023/01/16 04:00:54;;;;;;;;;;;6.50;99.90;;;;;;5036939;28;19963;-67
2023/01/16 04:03:28;;;;;;;;;;;6.50;99.90;;;;;;5036669;28;20346;-67
2023/01/16 04:06:03;;;;;;;;;;;6.50;99.90;;;;;;5035086;28;19909;-67
2023/01/16 04:08:33;;;;;;;;;;;6.50;99.90;;;;;;5037471;28;19913;-67
2023/01/16 04:10:59;;;;;;;;;;;6.50;99.90;;;;;;5037102;28;19939;-67
2023/01/16 04:13:30;;;;;;;;;;;6.60;99.90;;;;;;5036949;28;20103;-70
2023/01/16 04:15:56;;;;;;;;;;;6.60;99.90;;;;;;5037968;28;20325;-68
2023/01/16 04:18:24;;;;;;;;;;;6.60;99.90;;;;;;5037434;28;19909;-67
2023/01/16 04:20:50;;;;;;;;;;;6.60;99.90;;;;;;5035735;28;20328;-68
2023/01/16 04:23:16;;;;;;;;;;;6.60;99.90;;;;;;5036821;28;19959;-67
2023/01/16 04:25:42;;;;;;;;;;;6.60;99.90;;;;;;5035361;28;20412;-67
2023/01/16 04:28:07;;;;;;;;;;;6.60;99.90;;;;;;5049398;28;19963;-67
2023/01/16 04:30:32;;;;;;;;;;;6.70;99.90;;;;;;5056542;28;19979;-67
2023/01/16 04:33:02;;;;;;;;;;;6.60;99.90;;;;;;5056425;28;19979;-67
2023/01/16 04:35:27;;;;;;;;;;;6.60;99.90;;;;;;5056807;28;19909;-66
2023/01/16 04:37:53;;;;;;;;;;;6.50;99.90;;;;;;5054960;28;19915;-68
2023/01/16 04:40:18;;;;;;;;;;;6.60;99.90;;;;;;5055343;28;19919;-68
2023/01/16 04:42:44;;;;;;;;;;;6.60;99.90;;;;;;5056160;28;19948;-68
2023/01/16 04:45:09;;;;;;;;;;;6.60;99.90;;;;;;5056570;28;19957;-67
2023/01/16 04:47:35;;;;;;;;;;;6.60;99.90;;;;;;5056432;28;19909;-67
2023/01/16 04:50:00;;;;;;;;;;;6.60;99.90;;;;;;5056016;28;19938;-67
2023/01/16 04:52:26;;;;;;;;;;;6.70;99.90;;;;;;5056280;28;20269;-67
2023/01/16 04:54:51;;;;;;;;;;;6.70;99.90;;;;;;5055892;28;19916;-67
2023/01/16 04:57:16;;;;;;;;;;;6.80;99.90;;;;;;5055338;28;19921;-68
2023/01/16 04:59:42;;;;;;;;;;;6.90;99.90;;;;;;5055727;28;19908;-67
2023/01/16 05:02:08;;;;;;;;;;;6.90;99.90;;;;;;5055887;28;19916;-67
2023/01/16 05:04:33;;;;;;;;;;;6.80;99.90;;;;;;5055988;28;20334;-67
2023/01/16 05:06:58;;;;;;;;;;;6.80;99.90;;;;;;5055492;28;20264;-67
2023/01/16 05:09:24;;;;;;;;;;;6.80;99.90;;;;;;5055191;28;19909;-67
2023/01/16 05:11:49;;;;;;;;;;;6.80;99.90;;;;;;5054156;28;19908;-67
2023/01/16 05:14:15;;;;;;;;;;;6.90;99.90;;;;;;5055457;28;19908;-67
2023/01/16 05:16:41;;;;;;;;;;;6.90;99.90;;;;;;5055757;28;19909;-67
2023/01/16 05:19:07;;;;;;;;;;;6.90;99.90;;;;;;5054289;28;19916;-67
2023/01/16 05:21:33;;;;;;;;;;;6.90;99.90;;;;;;5055648;28;19909;-67
2023/01/16 05:23:58;;;;;;;;;;;6.90;99.90;;;;;;5056054;28;19913;-67
2023/01/16 05:26:23;;;;;;;;;;;6.80;99.90;;;;;;5057795;28;19909;-67
2023/01/16 05:28:49;;;;;;;;;;;6.90;99.90;;;;;;5057289;28;19947;-67
2023/01/16 05:31:14;;;;;;;;;;;6.80;99.90;;;;;;5059634;28;19916;-67
2023/01/16 05:33:40;;;;;;;;;;;6.90;99.90;;;;;;5056552;28;19909;-67
2023/01/16 05:36:06;;;;;;;;;;;6.80;99.90;;;;;;5055456;28;19908;-67
2023/01/16 05:38:31;;;;;;;;;;;6.80;99.90;;;;;;5054902;28;19908;-68
2023/01/16 05:40:57;;;;;;;;;;;6.80;99.90;;;;;;5055238;28;19909;-68
2023/01/16 05:43:22;;;;;;;;;;;6.70;99.90;;;;;;5054626;28;20350;-68
2023/01/16 05:45:48;;;;;;;;;;;6.70;99.90;;;;;;5055098;28;19915;-67
2023/01/16 05:48:13;;;;;;;;;;;6.70;99.90;;;;;;5055400;28;19909;-68
2023/01/16 05:50:39;;;;;;;;;;;6.60;99.90;;;;;;5054618;28;19917;-67
2023/01/16 05:53:04;;;;;;;;;;;6.50;99.90;;;;;;5057246;28;19915;-68
2023/01/16 05:55:30;;;;;;;;;;;6.50;99.90;;;;;;5054650;28;19917;-68
2023/01/16 05:57:56;;;;;;;;;;;6.40;99.90;;;;;;5063652;28;19919;-68
2023/01/16 06:00:22;;;;;;;;;;;6.50;99.90;;;;;;5054217;28;20008;-68
2023/01/16 06:02:47;;;;;;;;;;;6.40;99.90;;;;;;5054567;28;19999;-68
2023/01/16 06:05:13;;;;;;;;;;;6.30;99.90;;;;;;5057183;28;20361;-68
2023/01/16 06:07:41;;;;;;;;;;;6.10;99.90;;;;;;5057127;28;19966;-68
2023/01/16 06:10:07;;;;;;;;;;;6.10;99.90;;;;;;5075586;28;20335;-69
2023/01/16 06:12:33;;;;;;;;;;;5.90;99.90;;;;;;5075051;28;20422;-68
2023/01/16 06:14:59;;;;;;;;;;;6.00;99.90;;;;;;5075656;28;19962;-68
2023/01/16 06:17:24;;;;;;;;;;;6.00;99.90;;;;;;5073736;28;20350;-68
2023/01/16 06:19:50;;;;;;;;;;;5.90;99.90;;;;;;5075289;28;20369;-68
2023/01/16 06:22:15;;;;;;;;;;;6.00;99.90;;;;;;5074351;28;20424;-68
2023/01/16 06:24:41;;;;;;;;;;;5.90;99.90;;;;;;5073456;28;19909;-69
2023/01/16 06:27:06;;;;;;;;;;;5.90;99.90;;;;;;5070794;28;19909;-68
2023/01/16 06:29:32;;;;;;;;;;;5.80;99.90;;;;;;5058392;28;19959;-68
2023/01/16 06:31:58;;;;;;;;;;;5.80;99.90;;;;;;5055406;28;19973;-68
2023/01/16 06:34:23;;;;;;;;;;;5.80;99.90;;;;;;5056189;28;19926;-69
2023/01/16 06:36:50;;;;;;;;;;;5.80;99.90;;;;;;5055262;28;20289;-76
2023/01/16 06:39:15;;;;;;;;;;;5.80;99.90;;;;;;5053070;28;19916;-75
2023/01/16 06:41:42;;;;;;;;;;;5.70;99.90;;;;;;5053209;28;19909;-75
2023/01/16 06:44:07;;;;;;;;;;;5.80;99.90;;;;;;5054120;28;20018;-73
2023/01/16 06:46:33;;;;;;;;;;;5.60;99.90;;;;;;5054074;28;20000;-73
2023/01/16 06:48:58;;;;;;;;;;;5.60;99.90;;;;;;5053720;28;20007;-73
2023/01/16 06:51:24;;;;;;;;;;;5.60;99.90;;;;;;5054265;28;19920;-69
2023/01/16 06:53:49;;;;;;;;;;;5.70;99.90;;;;;;5055157;28;19909;-68
2023/01/16 06:56:16;;;;;;;;;;;5.60;99.90;;;;;;5077970;23;20487;-66
2023/01/16 06:58:42;;;;;;;;;;;5.70;99.90;;;;;;5034803;28;19939;-66
2023/01/16 07:01:08;;;;;;;;;;;5.70;99.90;;;;;;5053963;28;20380;-68
2023/01/16 07:03:33;;;;;;;;;;;5.60;99.90;;;;;;5057490;28;19909;-68
2023/01/16 07:05:59;;;;;;;;;;;5.70;99.90;;;;;;5057723;28;19909;-67
2023/01/16 07:08:24;;;;;;;;;;;5.80;99.90;;;;;;5057520;28;19909;-66
2023/01/16 07:10:50;;;;;;;;;;;5.70;99.90;;;;;;5039354;28;19920;-66
2023/01/16 07:13:16;;;;;;;;;;;5.80;99.90;;;;;;5057326;28;19908;-66
2023/01/16 07:24:00;;;;;;;;;;;5.90;99.90;;;;;;5050013;28;19963;-68
2023/01/16 07:26:26;;;;;;;;;;;5.80;99.90;;;;;;5066122;28;19921;-67
2023/01/16 07:28:53;;;;;;;;;;;5.80;99.90;;;;;;5067628;28;19970;-68
2023/01/16 07:31:19;;;;;;;;;;;5.80;99.90;;;;;;5068004;28;19916;-67
2023/01/16 07:33:44;;;;;;;;;;;5.80;99.90;;;;;;5066808;28;19963;-67
2023/01/16 07:36:10;;;;;;;;;;;5.70;99.90;;;;;;5038470;28;19963;-67
2023/01/16 07:38:35;;;;;;;;;;;5.80;99.90;;;;;;5038400;28;19909;-66
2023/01/16 07:41:00;;;;;;;;;;;5.90;99.90;;;;;;5039027;28;19915;-66
2023/01/16 07:43:26;;;;;;;;;;;5.80;99.90;;;;;;5058769;28;19909;-67
2023/01/16 07:45:54;;;;;;;;;;;5.80;99.90;;;;;;5049685;28;19920;-67
2023/01/16 07:48:20;;;;;;;;;;;5.80;99.90;;;;;;5063162;28;19909;-66
2023/01/16 07:50:53;;;;;;;;;;;5.70;99.90;;;;;;5040076;28;19945;-66
2023/01/16 07:53:21;;;;;;;;;;;5.70;99.90;;;;;;5040853;28;19912;-67
2023/01/16 07:55:48;;;;;;;;;;;5.80;99.90;;;;;;5059207;28;19913;-67
2023/01/16 07:58:14;;;;;;;;;;;5.80;99.90;;;;;;5046294;28;19917;-67
2023/01/16 08:00:39;;;;;;;;;;;5.90;99.90;;;;;;5059343;28;19995;-67
2023/01/16 08:03:05;;;;;;;;;;;6.00;99.90;;;;;;5057695;28;19909;-66
2023/01/16 08:05:30;;;;;;;;;;;6.00;99.90;;;;;;5039562;28;19909;-66
2023/01/16 08:07:55;;;;;;;;;;;6.10;99.90;;;;;;5039030;28;19916;-67
2023/01/16 08:10:21;;;;;;;;;;;6.00;99.90;;;;;;5060479;28;19913;-67
2023/01/16 08:12:46;;;;;;;;;;;6.10;99.90;;;;;;5065089;28;19920;-66
2023/01/16 08:15:12;;;;;;;;;;;6.10;99.90;;;;;;5057747;28;19916;-67
2023/01/16 08:17:38;;;;;;;;;;;6.30;99.90;;;;;;5056852;28;19944;-67
2023/01/16 08:20:04;;;;;;;;;;;6.20;99.90;;;;;;5038591;28;20004;-67
2023/01/16 08:22:30;;;;;;;;;;;6.20;99.90;;;;;;5056414;28;20012;-67
2023/01/16 08:24:55;;;;;;;;;;;6.20;99.90;;;;;;5056558;28;19959;-67
2023/01/16 08:27:21;;;;;;;;;;;6.30;99.90;;;;;;5056211;28;19913;-68
2023/01/16 08:29:46;;;;;;;;;;;6.30;99.90;;;;;;5056751;28;19992;-67
2023/01/16 08:32:11;;;;;;;;;;;6.40;99.90;;;;;;5057020;28;19937;-67
2023/01/16 08:34:37;;;;;;;;;;;6.30;99.90;;;;;;5038238;28;19909;-67
2023/01/16 08:37:04;;;;;;;;;;;6.30;99.90;;;;;;5056212;28;20003;-67
2023/01/16 08:39:29;;;;;;;;;;;6.40;99.90;;;;;;5056926;28;19971;-67
2023/01/16 08:52:56;;;;;;;;;;;7.20;99.90;;;;;;5059471;28;19916;-67
2023/01/16 08:55:22;;;;;;;;;;;7.30;99.90;;;;;;5042784;28;19909;-67
2023/01/16 08:57:47;;;;;;;;;;;7.30;99.90;;;;;;5062885;28;20281;-67
2023/01/16 09:00:13;;;;;;;;;;;7.40;99.90;;;;;;5058071;28;20003;-67
2023/01/16 09:02:38;;;;;;;;;;;7.40;99.90;;;;;;5056257;28;19913;-67
2023/01/16 09:05:04;;;;;;;;;;;7.50;99.90;;;;;;5055864;28;19932;-67
2023/01/16 09:07:30;;;;;;;;;;;7.50;99.90;;;;;;5037381;28;20411;-66
2023/01/16 09:09:55;;;;;;;;;;;7.70;99.90;;;;;;5055338;28;19923;-66
2023/01/16 09:15:05;;;;;;;;;;;7.90;99.90;;;;;;5055605;28;19917;-67
2023/01/16 09:17:31;;;;;;;;;;;8.00;99.90;;;;;;5055846;28;19913;-67
2023/01/16 09:19:56;;;;;;;;;;;8.10;99.90;;;;;;5037011;28;19909;-67
2023/01/16 09:22:22;;;;;;;;;;;8.10;99.90;;;;;;5055374;28;19908;-66
2023/01/16 09:24:47;;;;;;;;;;;8.10;99.90;;;;;;5054161;28;19909;-66
2023/01/16 09:27:13;;;;;;;;;;;8.20;99.90;;;;;;5036740;28;19908;-66
2023/01/16 09:29:39;;;;;;;;;;;8.20;99.90;;;;;;5054924;28;20296;-66
2023/01/16 09:32:08;;;;;;;;;;;8.30;99.90;;;;;;5054983;28;19971;-66
2023/01/16 09:34:34;;;;;;;;;;;8.20;99.90;;;;;;5037772;28;19916;-65
2023/01/16 09:37:00;;;;;;;;;;;8.20;99.90;;;;;;5038003;28;19909;-65
2023/01/16 09:39:25;;;;;;;;;;;8.10;99.90;;;;;;5038114;28;20039;-66
2023/01/16 09:44:35;;;;;;;;;;;8.20;99.90;;;;;;5054819;28;20013;-65
2023/01/16 09:47:01;;;;;;;;;;;8.20;99.90;;;;;;5054615;28;20330;-67
2023/01/16 09:49:31;;;;;;;;;;;8.20;99.90;;;;;;5055677;28;19909;-69
2023/01/16 10:00:21;;;;;;;;;;;8.00;99.90;;;;;;5055253;28;19916;-67
2023/01/16 10:02:47;;;;;;;;;;;8.00;99.90;;;;;;5036413;28;19909;-65
2023/01/16 10:05:13;;;;;;;;;;;8.10;99.90;;;;;;5054187;28;19909;-67
2023/01/16 10:07:45;;;;;;;;;;;8.00;99.90;;;;;;5054004;28;20327;-65
2023/01/16 10:10:13;;;;;;;;;;;8.00;99.90;;;;;;5054280;28;19966;-67
2023/01/16 10:12:44;;;;;;;;;;;8.00;99.90;;;;;;5053203;28;21226;-66
2023/01/16 10:15:20;;;;;;;;;;;8.00;99.90;;;;;;5053948;28;19909;-67
2023/01/16 10:17:56;;;;;;;;;;;8.00;99.90;;;;;;5054288;28;20007;-67
2023/01/16 10:20:43;;;;;;;;;;;8.10;99.90;;;;;;5055290;28;19958;-67
2023/01/16 10:23:08;;;;;;;;;;;8.10;99.90;;;;;;5054460;28;19916;-67
2023/01/16 10:25:37;;;;;;;;;;;8.10;99.90;;;;;;5053952;28;20329;-66
2023/01/16 10:28:25;;;;;;;;;;;8.20;99.90;;;;;;5053745;28;19913;-67
2023/01/16 10:30:54;;;;;;;;;;;8.10;99.90;;;;;;5054063;28;19936;-65
2023/01/16 10:33:27;;;;;;;;;;;8.20;99.90;;;;;;5054401;28;19952;-65
2023/01/16 10:35:53;;;;;;;;;;;8.20;99.90;;;;;;5054843;28;19916;-66
2023/01/16 10:38:55;;;;;;;;;;;8.30;99.90;;;;;;5054453;28;19913;-66
2023/01/16 10:49:56;;;;;;;;;;;8.30;99.90;;;;;;5054393;28;20280;-66
2023/01/16 10:52:22;;;;;;;;;;;8.30;99.90;;;;;;5056784;28;19909;-66
2023/01/16 10:54:48;;;;;;;;;;;8.10;99.90;;;;;;5055899;28;19912;-67
2023/01/16 10:57:17;;;;;;;;;;;8.20;99.90;;;;;;5035577;28;19923;-66
2023/01/16 10:59:44;;;;;;;;;;;8.20;99.90;;;;;;5035325;28;20006;-66
2023/01/16 11:02:24;;;;;;;;;;;8.30;99.90;;;;;;5053657;28;20375;-66
2023/01/16 11:04:52;;;;;;;;;;;8.20;99.90;;;;;;5054004;28;19995;-67
2023/01/16 11:07:21;;;;;;;;;;;8.10;99.90;;;;;;5035860;28;20369;-67
2023/01/16 11:09:46;;;;;;;;;;;8.20;99.90;;;;;;5055113;28;19927;-67
2023/01/16 11:20:39;;;;;;;;;;;8.40;99.90;;;;;;5055589;28;19976;-66
2023/01/16 11:23:14;;;;;;;;;;;8.70;99.90;;;;;;5054569;28;19913;-66
2023/01/16 11:25:40;;;;;;;;;;;8.70;99.90;;;;;;5035437;28;20423;-66
2023/01/16 11:28:07;;;;;;;;;;;8.80;99.90;;;;;;5053782;28;19908;-67
2023/01/16 11:30:36;;;;;;;;;;;8.70;99.90;;;;;;5053083;28;19913;-67
2023/01/16 11:33:07;;;;;;;;;;;8.70;99.90;;;;;;5053137;28;19959;-66
2023/01/16 11:35:33;;;;;;;;;;;8.70;99.90;;;;;;5053386;28;19916;-66
2023/01/16 11:38:00;;;;;;;;;;;8.70;99.90;;;;;;5052966;28;19963;-67
2023/01/16 11:40:27;;;;;;;;;;;8.80;99.90;;;;;;5053418;28;19916;-66
2023/01/16 11:48:26;;;;;;;;;;;8.70;99.90;;;;;;5055801;28;19915;-68
2023/01/16 11:50:53;;;;;;;;;;;8.70;99.90;;;;;;5057340;28;19917;-67
2023/01/16 11:53:19;;;;;;;;;;;8.80;99.90;;;;;;5056779;28;19908;-66
2023/01/16 11:55:56;;;;;;;;;;;8.80;99.90;;;;;;5057125;28;19909;-67
2023/01/16 11:58:45;;;;;;;;;;;8.80;99.90;;;;;;5056655;28;19917;-66
2023/01/16 12:01:19;;;;;;;;;;;8.80;99.90;;;;;;5028225;28;19947;-67
2023/01/16 12:04:04;;;;;;;;;;;8.90;99.90;;;;;;5039711;28;20365;-66
2023/01/16 12:06:39;;;;;;;;;;;8.90;99.90;;;;;;5038593;28;19916;-66
2023/01/16 12:09:12;;;;;;;;;;;8.80;99.90;;;;;;5056657;28;20007;-66
2023/01/16 12:11:41;;;;;;;;;;;9.00;99.90;;;;;;5038606;28;20456;-66
2023/01/16 12:14:18;;;;;;;;;;;9.00;99.90;;;;;;5056144;28;19995;-67
2023/01/16 12:17:02;;;;;;;;;;;9.10;99.90;;;;;;5056162;28;19913;-67
2023/01/16 12:19:37;;;;;;;;;;;9.30;99.90;;;;;;5056324;28;20016;-66
2023/01/16 12:22:21;;;;;;;;;;;9.00;99.90;;;;;;5056877;28;19955;-67
2023/01/16 12:24:55;;;;;;;;;;;9.20;99.90;;;;;;5040028;28;19966;-66
2023/01/16 12:27:40;;;;;;;;;;;9.40;99.90;;;;;;5058773;28;19928;-67
2023/01/16 12:30:11;;;;;;;;;;;9.20;99.90;;;;;;5056695;28;19920;-66
2023/01/16 12:32:44;;;;;;;;;;;9.30;99.90;;;;;;5058415;28;19956;-67
2023/01/16 12:35:28;;;;;;;;;;;9.30;99.90;;;;;;5039684;28;20285;-66
2023/01/16 12:38:00;;;;;;;;;;;9.40;99.90;;;;;;5056706;28;19909;-66
2023/01/16 12:40:32;;;;;;;;;;;9.30;99.90;;;;;;5038126;28;19909;-67
2023/01/16 12:43:20;;;;;;;;;;;9.10;99.90;;;;;;5037769;28;20432;-66
2023/01/16 12:45:52;;;;;;;;;;;9.10;99.90;;;;;;5056202;28;19959;-66
2023/01/16 12:48:36;;;;;;;;;;;9.10;99.90;;;;;;5055827;28;19912;-67
2023/01/16 12:51:09;;;;;;;;;;;9.00;99.90;;;;;;5056055;28;20348;-66
2023/01/16 12:53:38;;;;;;;;;;;9.10;99.90;;;;;;5055923;28;20361;-67
2023/01/16 12:56:22;;;;;;;;;;;9.10;99.90;;;;;;5056077;28;19932;-67
2023/01/16 12:58:50;;;;;;;;;;;9.10;99.90;;;;;;5066859;23;19925;-71
2023/01/16 13:01:22;;;;;;;;;;;9.30;99.90;;;;;;5035904;28;20288;-71
2023/01/16 13:03:52;;;;;;;;;;;9.20;99.90;;;;;;5035680;28;19916;-71
2023/01/16 13:06:22;;;;;;;;;;;9.20;99.90;;;;;;5035593;28;20322;-71
2023/01/16 13:08:58;;;;;;;;;;;9.30;99.90;;;;;;5035655;28;19932;-71
2023/01/16 13:14:11;;;;;;;;;;;9.30;99.90;;;;;;5035907;28;20471;-71
2023/01/16 13:16:43;;;;;;;;;;;9.30;99.90;;;;;;5038263;28;19987;-70
2023/01/16 13:19:14;;;;;;;;;;;9.30;99.90;;;;;;5036706;28;19920;-72
2023/01/16 13:21:58;;;;;;;;;;;9.30;99.90;;;;;;5035953;28;19915;-71
2023/01/16 13:24:29;;;;;;;;;;;9.20;99.90;;;;;;5050991;28;19909;-70
2023/01/16 13:26:56;;;;;;;;;;;9.20;99.90;;;;;;5035444;28;19909;-71
2023/01/16 13:29:25;;;;;;;;;;;9.30;99.90;;;;;;5049336;28;19997;-71
2023/01/16 13:32:10;;;;;;;;;;;9.30;99.90;;;;;;5053840;28;19913;-72
2023/01/16 13:34:39;;;;;;;;;;;9.30;99.90;;;;;;5054257;28;19908;-71
2023/01/16 13:37:11;;;;;;;;;;;9.40;99.90;;;;;;5053752;28;19909;-71
2023/01/16 13:39:55;;;;;;;;;;;9.40;99.90;;;;;;5054190;28;19992;-71
2023/01/16 13:42:21;;;;;;;;;;;9.30;99.90;;;;;;5055103;28;19909;-70
2023/01/16 13:47:39;;;;;;;;;;;9.30;99.90;;;;;;5055003;28;19967;-70
2023/01/16 13:50:16;;;;;;;;;;;9.20;99.90;;;;;;5053661;28;19913;-72
2023/01/16 13:52:42;;;;;;;;;;;9.20;99.90;;;;;;5057045;28;20010;-71
2023/01/16 13:55:27;;;;;;;;;;;9.30;99.90;;;;;;5055671;28;19912;-72
2023/01/16 13:57:53;;;;;;;;;;;9.30;99.90;;;;;;5055026;28;19923;-71
2023/01/16 14:00:19;;;;;;;;;;;9.20;99.90;;;;;;5055259;28;19913;-71
2023/01/16 14:02:45;;;;;;;;;;;9.20;99.90;;;;;;5055936;28;20015;-71
2023/01/16 14:05:29;;;;;;;;;;;9.10;99.90;;;;;;5055205;28;19948;-72
2023/01/16 14:10:46;;;;;;;;;;;8.90;99.90;;;;;;5055119;28;19959;-72
2023/01/16 14:13:26;;;;;;;;;;;9.00;99.90;;;;;;5055156;28;20308;-71
2023/01/16 14:18:56;;;;;;;;;;;9.00;99.90;;;;;;5055555;28;19962;-72
2023/01/16 14:21:28;;;;;;;;;;;9.00;99.90;;;;;;5055006;28;20321;-72
2023/01/16 14:24:02;;;;;;;;;;;9.00;99.90;;;;;;5054046;28;20011;-72
2023/01/16 14:26:37;;;;;;;;;;;9.00;99.90;;;;;;5053302;28;20365;-71
2023/01/16 14:29:22;;;;;;;;;;;9.00;99.90;;;;;;5042978;28;20348;-73
2023/01/16 14:31:53;;;;;;;;;;;8.90;99.90;;;;;;5034682;28;20524;-73
2023/01/16 14:34:26;;;;;;;;;;;9.00;99.90;;;;;;5037311;28;20008;-71
2023/01/16 14:36:53;;;;;;;;;;;9.00;99.90;;;;;;5054211;28;19916;-72
2023/01/16 14:39:30;;;;;;;;;;;8.90;99.90;;;;;;5052750;28;19913;-72
2023/01/16 14:56:37;;;;;;;;;;;8.50;99.90;;;;;;5054181;28;19915;-75
2023/01/16 14:59:04;;;;;;;;;;;8.20;99.90;;;;;;5056353;28;20003;-73
2023/01/16 15:04:45;;;;;;;;;;;7.70;99.90;;;;;;5076623;28;19962;-71
2023/01/16 15:07:13;;;;;;;;;;;7.40;99.90;;;;;;5073737;28;19909;-69
2023/01/16 15:09:39;;;;;;;;;;;7.30;99.90;;;;;;5075800;28;19934;-70
2023/01/16 15:12:10;;;;;;;;;;;7.30;99.90;;;;;;5074163;28;19912;-71
2023/01/16 15:14:37;;;;;;;;;;;7.20;99.90;;;;;;5077912;28;19908;-71
2023/01/16 15:22:51;;;;;;;;;;;7.20;99.90;;;;;;5078087;28;20391;-70
2023/01/16 15:25:40;;;;;;;;;;;7.30;99.90;;;;;;5078130;28;20044;-73
2023/01/16 15:28:24;;;;;;;;;;;7.30;99.90;;;;;;5076320;28;19958;-72
2023/01/16 15:30:53;;;;;;;;;;;7.40;99.90;;;;;;5068851;28;19913;-71
2023/01/16 15:36:13;;;;;;;;;;;7.50;99.90;;;;;;5059179;28;19967;-71
2023/01/16 15:38:39;;;;;;;;;;;7.50;99.90;;;;;;5062919;28;19919;-71
2023/01/16 15:41:04;;;;;;;;;;;7.40;99.90;;;;;;5060524;28;19909;-73
2023/01/16 15:46:52;;;;;;;;;;;7.30;99.90;;;;;;5057043;28;20009;-72
2023/01/16 15:49:39;;;;;;;;;;;7.20;99.90;;;;;;5053348;28;19920;-69
2023/01/16 15:52:04;;;;;;;;;;;7.20;99.90;;;;;;5055961;28;20008;-70
2023/01/16 15:54:30;;;;;;;;;;;7.10;99.90;;;;;;5038261;28;19947;-70
2023/01/16 15:56:56;;;;;;;;;;;7.00;99.90;;;;;;5036968;28;19963;-73
2023/01/16 15:59:26;;;;;;;;;;;6.90;99.90;;;;;;5056100;28;19924;-72
2023/01/16 16:01:52;;;;;;;;;;;7.00;99.90;;;;;;5059137;28;20356;-73
2023/01/16 16:04:18;;;;;;;;;;;6.90;99.90;;;;;;5057454;28;20012;-70
2023/01/16 16:06:44;;;;;;;;;;;6.80;99.90;;;;;;5057924;28;19916;-69
2023/01/16 16:09:18;;;;;;;;;;;6.80;99.90;;;;;;5056774;28;19912;-70
2023/01/16 16:11:53;;;;;;;;;;;6.70;99.90;;;;;;5055339;28;19917;-73
2023/01/16 16:20:20;;;;;;;;;;;6.60;99.90;;;;;;5054516;28;20317;-72
2023/01/16 16:22:48;;;;;;;;;;;6.70;99.90;;;;;;5056663;28;19943;-72
2023/01/16 16:25:30;;;;;;;;;;;6.60;99.90;;;;;;5055208;28;20415;-71
2023/01/16 16:27:55;;;;;;;;;;;6.70;99.90;;;;;;5056566;28;19909;-71
2023/01/16 16:30:23;;;;;;;;;;;6.60;99.90;;;;;;5055982;28;19913;-72